Amunt
Inicio > meteoXarxa
Fes-te'n soci

METEOXARXA

Xodos
Ubicació
Comarca l′Alcalatén
Altitud (msnm) 1100
Posició geogràfica 40° 14' 44.16" N, 00° 17' 15.03" W
Model Davis Vantage Pro2 calefactada
Presa de dades
Font de les dades Ajuntament de Xodos (Pablo Solsona Palazón)
Estadístiques. Resum
Data Temperatura (ºC) Humitat (%) Pressió (hPa) Vent (km/h) Precipit. (mm)
Mínima Mitjana Màxima Mínima Mitjana Màxima Mínima Mitjana Màxima Predom. Mitjana Ràfega màxima Total Dies de pluja
Mínima Mitjana Màxima Mínima Mitjana Màxima
Últimes dades diàries
16-01-2017 3,1     5,4     7,7 N 36,5 101,4 0,0  
15-01-2017 0,0     2,9     5,1 N 30,1 93,3 0,0  
14-01-2017 -0,1     1,1     2,8 N 29,0 91,7 0,0  
13-01-2017 0,3     4,9     10,9 WNW 21,4 72,4 0,0  
12-01-2017 8,1     11,7     15,8 WNW 9,0 56,3 0,0  
11-01-2017 4,9     6,8     9,7 N 26,1 106,2 0,0  
10-01-2017 4,9     6,0     7,6 N 31,4 106,2 0,4  
09-01-2017 3,9     5,9     8,0 N 8,0 35,4 0,0  
08-01-2017 4,5     8,2     11,5 NW 7,4 49,9 0,0  
07-01-2017 1,6     6,0     8,3 SE 3,1 16,1 0,0  
06-01-2017 0,3     4,6     7,8 W 2,9 19,3 0,0  
05-01-2017 3,3     7,9     12,9 N 14,3 74,0 0,0  
04-01-2017 6,8     8,9     12,6 N 20,8 77,2 0,0  
03-01-2017 8,3     10,7     13,6 WNW 9,0 48,3 0,0  
02-01-2017 2,1     5,8     11,1 SSE 2,7 20,9 0,0  
01-01-2017 2,1     5,1     8,2 WSW 4,7 20,9 0,0  
31-12-2016 1,1     4,1     8,5 SW 8,0 33,8 0,0  
30-12-2016 2,4     6,0     10,7 SE 3,2 16,1 0,0  
29-12-2016 10,0     12,9     16,8 W 2,9 14,5 0,0  
28-12-2016 7,3     9,9     11,8 N 9,2 25,7 0,0  
27-12-2016 8,8     10,8     13,4 E 2,3 14,5 0,0  
26-12-2016 12,0     14,4     17,0 W 2,4 12,9 0,0  
25-12-2016 5,9     12,3     16,2 W 3,4 27,4 0,0  
24-12-2016 5,2     7,5     10,7 NW 12,2 43,5 0,0  
23-12-2016 6,4     8,4     11,4 N 7,1 41,8 0,0  
22-12-2016 5,0     8,1     10,6 N 7,4 29,0 0,0  
21-12-2016 2,7     5,7     8,9 N 16,9 69,2 0,0  
20-12-2016 2,4     4,6     7,9 NW 26,6 66,0 0,0  
19-12-2016 2,1     2,9     4,1 N 26,4 62,8 4,4  
18-12-2016 1,4     3,0     3,8 N 21,9 51,5 4,4  
17-12-2016 3,2     5,1     6,3 NE 26,9 78,9 31,2  
16-12-2016 4,8     5,4     6,1 NNE 9,8 51,5 21,6  
Dades del mes en curs (actualitzades fins l'últim dia disponible)
01/2017 -0,1 3,4 8,3 6,4 2,8 9,6 15,8   16,0 106,2 0,4  
Últimes dades mensuals
12/2016 1,1 5,6 12,0 7,7 3,8 10,2 17,0 9,1 78,9 80,8 7
11/2016 1,7 6,3 14,5 8,9 5,9 11,6 18,6 12,8 90,1 96,6 11
10/2016 7,7 11,9 15,8 14,3 11,9 17,3 21,9 5,6 46,7 45,2 10
09/2016 11,0 13,4 14,8 17,0 16,9 21,7 28,5 6,6 45,1 20,6 6
Dades de l'any en curs (actualitzades fins l'últim dia disponible)
2017 -0,1 3,4 8,3 6,4 2,8 9,6 15,8   16,0 106,2 0,4  
Últimes dades anuals